sensor_id;sensor_type;location;lat;lon;timestamp;P1;durP1;ratioP1;P2;durP2;ratioP2
78612;SDS011;67933;51.060;3.638;2023-03-01T00:01:58;7.60;;;5.07;;
78612;SDS011;67933;51.060;3.638;2023-03-01T00:04:23;9.43;;;5.05;;
78612;SDS011;67933;51.060;3.638;2023-03-01T00:06:49;9.65;;;5.55;;
78612;SDS011;67933;51.060;3.638;2023-03-01T00:09:14;9.82;;;6.07;;
78612;SDS011;67933;51.060;3.638;2023-03-01T00:11:40;10.40;;;6.43;;
78612;SDS011;67933;51.060;3.638;2023-03-01T00:14:06;10.15;;;5.65;;
78612;SDS011;67933;51.060;3.638;2023-03-01T00:16:38;7.60;;;5.20;;
78612;SDS011;67933;51.060;3.638;2023-03-01T00:19:05;11.65;;;5.65;;
78612;SDS011;67933;51.060;3.638;2023-03-01T00:21:32;10.93;;;6.05;;
78612;SDS011;67933;51.060;3.638;2023-03-01T00:23:58;10.60;;;7.38;;
78612;SDS011;67933;51.060;3.638;2023-03-01T00:26:24;9.27;;;5.55;;
78612;SDS011;67933;51.060;3.638;2023-03-01T00:28:50;7.90;;;5.13;;
78612;SDS011;67933;51.060;3.638;2023-03-01T00:31:18;12.10;;;5.75;;
78612;SDS011;67933;51.060;3.638;2023-03-01T00:33:46;10.07;;;5.75;;
78612;SDS011;67933;51.060;3.638;2023-03-01T00:36:12;8.60;;;5.75;;
78612;SDS011;67933;51.060;3.638;2023-03-01T00:38:40;9.85;;;6.28;;
78612;SDS011;67933;51.060;3.638;2023-03-01T00:41:09;9.70;;;6.15;;
78612;SDS011;67933;51.060;3.638;2023-03-01T00:43:36;9.82;;;6.32;;
78612;SDS011;67933;51.060;3.638;2023-03-01T00:46:03;10.15;;;6.30;;
78612;SDS011;67933;51.060;3.638;2023-03-01T00:48:33;12.25;;;6.45;;
78612;SDS011;67933;51.060;3.638;2023-03-01T00:51:06;9.95;;;6.07;;
78612;SDS011;67933;51.060;3.638;2023-03-01T00:53:33;12.63;;;6.43;;
78612;SDS011;67933;51.060;3.638;2023-03-01T00:55:59;10.80;;;6.55;;
78612;SDS011;67933;51.060;3.638;2023-03-01T00:58:25;8.68;;;6.32;;
78612;SDS011;67933;51.060;3.638;2023-03-01T01:00:51;9.63;;;6.38;;
78612;SDS011;67933;51.060;3.638;2023-03-01T01:03:17;11.60;;;6.57;;
78612;SDS011;67933;51.060;3.638;2023-03-01T01:05:43;10.25;;;5.97;;
78612;SDS011;67933;51.060;3.638;2023-03-01T01:08:08;10.98;;;6.18;;
78612;SDS011;67933;51.060;3.638;2023-03-01T01:10:34;12.70;;;6.90;;
78612;SDS011;67933;51.060;3.638;2023-03-01T01:13:00;11.35;;;7.25;;
78612;SDS011;67933;51.060;3.638;2023-03-01T01:15:25;9.65;;;6.10;;
78612;SDS011;67933;51.060;3.638;2023-03-01T01:17:51;10.57;;;6.43;;
78612;SDS011;67933;51.060;3.638;2023-03-01T01:20:17;11.70;;;6.65;;
78612;SDS011;67933;51.060;3.638;2023-03-01T01:22:42;9.88;;;6.75;;
78612;SDS011;67933;51.060;3.638;2023-03-01T01:25:08;10.02;;;6.60;;
78612;SDS011;67933;51.060;3.638;2023-03-01T01:27:33;10.15;;;6.53;;
78612;SDS011;67933;51.060;3.638;2023-03-01T01:29:59;11.70;;;6.97;;
78612;SDS011;67933;51.060;3.638;2023-03-01T01:32:24;14.60;;;7.85;;
78612;SDS011;67933;51.060;3.638;2023-03-01T01:34:50;13.43;;;7.22;;
78612;SDS011;67933;51.060;3.638;2023-03-01T01:37:15;12.05;;;7.13;;
78612;SDS011;67933;51.060;3.638;2023-03-01T01:39:41;13.00;;;7.82;;
78612;SDS011;67933;51.060;3.638;2023-03-01T01:42:09;14.50;;;7.88;;
78612;SDS011;67933;51.060;3.638;2023-03-01T01:44:42;14.45;;;7.70;;
78612;SDS011;67933;51.060;3.638;2023-03-01T01:47:12;12.70;;;7.38;;
78612;SDS011;67933;51.060;3.638;2023-03-01T01:49:44;13.75;;;7.97;;
78612;SDS011;67933;51.060;3.638;2023-03-01T01:52:23;12.80;;;8.32;;
78612;SDS011;67933;51.060;3.638;2023-03-01T01:57:34;11.65;;;7.93;;
78612;SDS011;67933;51.060;3.638;2023-03-01T02:00:07;11.18;;;7.07;;
78612;SDS011;67933;51.060;3.638;2023-03-01T02:02:35;13.85;;;8.15;;
78612;SDS011;67933;51.060;3.638;2023-03-01T02:05:22;13.52;;;7.57;;
78612;SDS011;67933;51.060;3.638;2023-03-01T02:07:53;16.38;;;8.93;;
78612;SDS011;67933;51.060;3.638;2023-03-01T02:10:20;19.88;;;9.57;;
78612;SDS011;67933;51.060;3.638;2023-03-01T02:15:13;16.38;;;8.93;;
78612;SDS011;67933;51.060;3.638;2023-03-01T02:17:39;15.25;;;9.55;;
78612;SDS011;67933;51.060;3.638;2023-03-01T02:22:52;17.00;;;9.00;;
78612;SDS011;67933;51.060;3.638;2023-03-01T02:25:25;15.48;;;8.73;;
78612;SDS011;67933;51.060;3.638;2023-03-01T02:30:38;15.90;;;9.00;;
78612;SDS011;67933;51.060;3.638;2023-03-01T02:33:25;13.80;;;8.15;;
78612;SDS011;67933;51.060;3.638;2023-03-01T02:35:51;21.02;;;10.85;;
78612;SDS011;67933;51.060;3.638;2023-03-01T02:38:19;15.90;;;9.38;;
78612;SDS011;67933;51.060;3.638;2023-03-01T02:40:45;19.02;;;10.70;;
78612;SDS011;67933;51.060;3.638;2023-03-01T02:43:12;15.98;;;9.88;;
78612;SDS011;67933;51.060;3.638;2023-03-01T02:45:38;17.90;;;10.18;;
78612;SDS011;67933;51.060;3.638;2023-03-01T02:48:12;16.45;;;9.50;;
78612;SDS011;67933;51.060;3.638;2023-03-01T02:53:58;19.67;;;9.93;;
78612;SDS011;67933;51.060;3.638;2023-03-01T02:56:27;16.52;;;9.45;;
78612;SDS011;67933;51.060;3.638;2023-03-01T02:58:53;18.90;;;10.40;;
78612;SDS011;67933;51.060;3.638;2023-03-01T03:01:19;19.83;;;10.88;;
78612;SDS011;67933;51.060;3.638;2023-03-01T03:03:45;18.45;;;10.40;;
78612;SDS011;67933;51.060;3.638;2023-03-01T03:06:11;20.23;;;11.30;;
78612;SDS011;67933;51.060;3.638;2023-03-01T03:08:37;19.00;;;10.63;;
78612;SDS011;67933;51.060;3.638;2023-03-01T03:11:03;20.77;;;11.13;;
78612;SDS011;67933;51.060;3.638;2023-03-01T03:13:28;17.70;;;10.98;;
78612;SDS011;67933;51.060;3.638;2023-03-01T03:15:54;22.27;;;11.00;;
78612;SDS011;67933;51.060;3.638;2023-03-01T03:18:21;21.20;;;10.88;;
78612;SDS011;67933;51.060;3.638;2023-03-01T03:20:47;19.40;;;11.75;;
78612;SDS011;67933;51.060;3.638;2023-03-01T03:23:17;20.25;;;12.13;;
78612;SDS011;67933;51.060;3.638;2023-03-01T03:25:47;24.02;;;12.30;;
78612;SDS011;67933;51.060;3.638;2023-03-01T03:28:13;22.48;;;11.70;;
78612;SDS011;67933;51.060;3.638;2023-03-01T03:30:40;20.50;;;11.07;;
78612;SDS011;67933;51.060;3.638;2023-03-01T03:33:06;20.92;;;11.10;;
78612;SDS011;67933;51.060;3.638;2023-03-01T03:35:34;23.52;;;12.10;;
78612;SDS011;67933;51.060;3.638;2023-03-01T03:38:05;21.10;;;11.35;;
78612;SDS011;67933;51.060;3.638;2023-03-01T03:40:38;19.58;;;10.95;;
78612;SDS011;67933;51.060;3.638;2023-03-01T03:43:09;20.85;;;11.15;;
78612;SDS011;67933;51.060;3.638;2023-03-01T03:45:37;24.70;;;12.48;;
78612;SDS011;67933;51.060;3.638;2023-03-01T03:48:03;22.00;;;12.27;;
78612;SDS011;67933;51.060;3.638;2023-03-01T03:50:31;26.33;;;12.80;;
78612;SDS011;67933;51.060;3.638;2023-03-01T03:52:56;26.30;;;12.48;;
78612;SDS011;67933;51.060;3.638;2023-03-01T03:55:22;23.85;;;12.52;;
78612;SDS011;67933;51.060;3.638;2023-03-01T03:57:48;22.77;;;12.30;;
78612;SDS011;67933;51.060;3.638;2023-03-01T04:00:20;24.38;;;12.52;;
78612;SDS011;67933;51.060;3.638;2023-03-01T04:02:49;25.08;;;13.60;;
78612;SDS011;67933;51.060;3.638;2023-03-01T04:05:16;24.85;;;12.40;;
78612;SDS011;67933;51.060;3.638;2023-03-01T04:07:43;25.73;;;12.57;;
78612;SDS011;67933;51.060;3.638;2023-03-01T04:10:10;23.45;;;12.90;;
78612;SDS011;67933;51.060;3.638;2023-03-01T04:12:38;24.60;;;12.63;;
78612;SDS011;67933;51.060;3.638;2023-03-01T04:15:05;21.73;;;12.15;;
78612;SDS011;67933;51.060;3.638;2023-03-01T04:17:39;22.50;;;12.40;;
78612;SDS011;67933;51.060;3.638;2023-03-01T04:20:06;19.98;;;11.57;;
78612;SDS011;67933;51.060;3.638;2023-03-01T04:22:34;21.55;;;12.02;;
78612;SDS011;67933;51.060;3.638;2023-03-01T04:25:00;23.27;;;11.48;;
78612;SDS011;67933;51.060;3.638;2023-03-01T04:27:32;24.27;;;12.88;;
78612;SDS011;67933;51.060;3.638;2023-03-01T04:30:02;24.15;;;12.10;;
78612;SDS011;67933;51.060;3.638;2023-03-01T04:32:28;22.58;;;11.98;;
78612;SDS011;67933;51.060;3.638;2023-03-01T04:34:54;23.33;;;12.32;;
78612;SDS011;67933;51.060;3.638;2023-03-01T04:37:19;24.30;;;11.82;;
78612;SDS011;67933;51.060;3.638;2023-03-01T04:39:45;22.65;;;11.23;;
78612;SDS011;67933;51.060;3.638;2023-03-01T04:42:12;21.60;;;10.88;;
78612;SDS011;67933;51.060;3.638;2023-03-01T04:44:38;22.92;;;11.85;;
78612;SDS011;67933;51.060;3.638;2023-03-01T04:47:03;20.73;;;11.23;;
78612;SDS011;67933;51.060;3.638;2023-03-01T04:49:29;19.98;;;11.00;;
78612;SDS011;67933;51.060;3.638;2023-03-01T04:51:54;22.85;;;11.57;;
78612;SDS011;67933;51.060;3.638;2023-03-01T04:54:20;23.67;;;11.88;;
78612;SDS011;67933;51.060;3.638;2023-03-01T04:56:45;21.23;;;11.02;;
78612;SDS011;67933;51.060;3.638;2023-03-01T04:59:11;22.80;;;10.82;;
78612;SDS011;67933;51.060;3.638;2023-03-01T05:01:37;21.27;;;10.65;;
78612;SDS011;67933;51.060;3.638;2023-03-01T05:04:03;22.75;;;11.00;;
78612;SDS011;67933;51.060;3.638;2023-03-01T05:06:30;21.38;;;10.60;;
78612;SDS011;67933;51.060;3.638;2023-03-01T05:08:56;22.33;;;10.65;;
78612;SDS011;67933;51.060;3.638;2023-03-01T05:11:21;23.60;;;11.18;;
78612;SDS011;67933;51.060;3.638;2023-03-01T05:13:47;17.15;;;8.93;;
78612;SDS011;67933;51.060;3.638;2023-03-01T05:16:15;19.73;;;10.88;;
78612;SDS011;67933;51.060;3.638;2023-03-01T05:18:41;19.90;;;10.57;;
78612;SDS011;67933;51.060;3.638;2023-03-01T05:21:11;18.42;;;9.85;;
78612;SDS011;67933;51.060;3.638;2023-03-01T05:23:40;17.65;;;8.88;;
78612;SDS011;67933;51.060;3.638;2023-03-01T05:26:06;17.95;;;9.80;;
78612;SDS011;67933;51.060;3.638;2023-03-01T05:28:33;21.25;;;9.75;;
78612;SDS011;67933;51.060;3.638;2023-03-01T05:30:58;21.20;;;10.90;;
78612;SDS011;67933;51.060;3.638;2023-03-01T05:33:24;19.30;;;9.65;;
78612;SDS011;67933;51.060;3.638;2023-03-01T05:35:50;22.90;;;10.65;;
78612;SDS011;67933;51.060;3.638;2023-03-01T05:38:17;16.83;;;9.73;;
78612;SDS011;67933;51.060;3.638;2023-03-01T05:40:43;18.25;;;9.00;;
78612;SDS011;67933;51.060;3.638;2023-03-01T05:43:10;16.50;;;9.32;;
78612;SDS011;67933;51.060;3.638;2023-03-01T05:45:37;19.27;;;9.75;;
78612;SDS011;67933;51.060;3.638;2023-03-01T05:48:03;19.45;;;10.18;;
78612;SDS011;67933;51.060;3.638;2023-03-01T05:50:32;16.88;;;9.70;;
78612;SDS011;67933;51.060;3.638;2023-03-01T05:53:00;18.20;;;9.13;;
78612;SDS011;67933;51.060;3.638;2023-03-01T05:55:28;20.50;;;9.82;;
78612;SDS011;67933;51.060;3.638;2023-03-01T05:57:54;20.10;;;10.00;;
78612;SDS011;67933;51.060;3.638;2023-03-01T06:00:21;18.40;;;8.75;;
78612;SDS011;67933;51.060;3.638;2023-03-01T06:02:48;20.63;;;9.82;;
78612;SDS011;67933;51.060;3.638;2023-03-01T06:05:14;19.75;;;9.98;;
78612;SDS011;67933;51.060;3.638;2023-03-01T06:07:40;21.27;;;10.15;;
78612;SDS011;67933;51.060;3.638;2023-03-01T06:10:06;21.58;;;10.15;;
78612;SDS011;67933;51.060;3.638;2023-03-01T06:12:33;19.63;;;10.13;;
78612;SDS011;67933;51.060;3.638;2023-03-01T06:15:00;20.35;;;9.88;;
78612;SDS011;67933;51.060;3.638;2023-03-01T06:17:28;20.25;;;9.85;;
78612;SDS011;67933;51.060;3.638;2023-03-01T06:19:54;20.67;;;11.15;;
78612;SDS011;67933;51.060;3.638;2023-03-01T06:22:20;23.95;;;10.77;;
78612;SDS011;67933;51.060;3.638;2023-03-01T06:24:45;26.38;;;11.88;;
78612;SDS011;67933;51.060;3.638;2023-03-01T06:27:11;27.25;;;12.32;;
78612;SDS011;67933;51.060;3.638;2023-03-01T06:29:36;23.63;;;11.90;;
78612;SDS011;67933;51.060;3.638;2023-03-01T06:32:02;23.98;;;11.20;;
78612;SDS011;67933;51.060;3.638;2023-03-01T06:34:28;21.67;;;10.52;;
78612;SDS011;67933;51.060;3.638;2023-03-01T06:36:53;21.80;;;11.32;;
78612;SDS011;67933;51.060;3.638;2023-03-01T06:39:19;21.35;;;10.45;;
78612;SDS011;67933;51.060;3.638;2023-03-01T06:41:44;24.25;;;11.32;;
78612;SDS011;67933;51.060;3.638;2023-03-01T06:44:10;22.95;;;10.35;;
78612;SDS011;67933;51.060;3.638;2023-03-01T06:46:35;19.38;;;10.02;;
78612;SDS011;67933;51.060;3.638;2023-03-01T06:49:01;20.13;;;10.77;;
78612;SDS011;67933;51.060;3.638;2023-03-01T06:51:32;21.98;;;10.27;;
78612;SDS011;67933;51.060;3.638;2023-03-01T06:53:57;19.73;;;10.63;;
78612;SDS011;67933;51.060;3.638;2023-03-01T06:56:23;21.33;;;11.40;;
78612;SDS011;67933;51.060;3.638;2023-03-01T06:58:48;22.73;;;10.38;;
78612;SDS011;67933;51.060;3.638;2023-03-01T07:01:14;18.20;;;9.90;;
78612;SDS011;67933;51.060;3.638;2023-03-01T07:03:39;18.02;;;9.07;;
78612;SDS011;67933;51.060;3.638;2023-03-01T07:06:05;19.05;;;10.50;;
78612;SDS011;67933;51.060;3.638;2023-03-01T07:08:30;21.30;;;11.23;;
78612;SDS011;67933;51.060;3.638;2023-03-01T07:10:56;22.50;;;12.02;;
78612;SDS011;67933;51.060;3.638;2023-03-01T07:13:22;22.02;;;11.98;;
78612;SDS011;67933;51.060;3.638;2023-03-01T07:15:47;23.58;;;12.93;;
78612;SDS011;67933;51.060;3.638;2023-03-01T07:18:13;20.10;;;11.13;;
78612;SDS011;67933;51.060;3.638;2023-03-01T07:20:38;19.05;;;10.63;;
78612;SDS011;67933;51.060;3.638;2023-03-01T07:23:04;18.42;;;10.23;;
78612;SDS011;67933;51.060;3.638;2023-03-01T07:25:30;16.33;;;9.02;;
78612;SDS011;67933;51.060;3.638;2023-03-01T07:27:57;16.23;;;9.15;;
78612;SDS011;67933;51.060;3.638;2023-03-01T07:30:23;15.73;;;8.75;;
78612;SDS011;67933;51.060;3.638;2023-03-01T07:32:52;16.23;;;8.95;;
78612;SDS011;67933;51.060;3.638;2023-03-01T07:35:19;13.52;;;8.32;;
78612;SDS011;67933;51.060;3.638;2023-03-01T07:37:45;14.75;;;8.85;;
78612;SDS011;67933;51.060;3.638;2023-03-01T07:40:11;14.00;;;8.63;;
78612;SDS011;67933;51.060;3.638;2023-03-01T07:42:37;12.30;;;8.18;;
78612;SDS011;67933;51.060;3.638;2023-03-01T07:45:03;11.20;;;7.47;;
78612;SDS011;67933;51.060;3.638;2023-03-01T07:47:30;13.25;;;6.88;;
78612;SDS011;67933;51.060;3.638;2023-03-01T07:49:56;11.35;;;7.03;;
78612;SDS011;67933;51.060;3.638;2023-03-01T07:52:21;12.07;;;8.13;;
78612;SDS011;67933;51.060;3.638;2023-03-01T07:54:47;11.30;;;7.63;;
78612;SDS011;67933;51.060;3.638;2023-03-01T07:57:12;12.77;;;7.82;;
78612;SDS011;67933;51.060;3.638;2023-03-01T07:59:37;10.32;;;7.05;;
78612;SDS011;67933;51.060;3.638;2023-03-01T08:02:03;13.70;;;7.97;;
78612;SDS011;67933;51.060;3.638;2023-03-01T08:04:28;12.98;;;7.18;;
78612;SDS011;67933;51.060;3.638;2023-03-01T08:06:54;13.07;;;6.70;;
78612;SDS011;67933;51.060;3.638;2023-03-01T08:09:20;14.88;;;7.60;;
78612;SDS011;67933;51.060;3.638;2023-03-01T08:11:46;10.32;;;6.53;;
78612;SDS011;67933;51.060;3.638;2023-03-01T08:14:11;10.50;;;6.90;;
78612;SDS011;67933;51.060;3.638;2023-03-01T08:16:37;10.63;;;6.53;;
78612;SDS011;67933;51.060;3.638;2023-03-01T08:19:03;9.05;;;6.13;;
78612;SDS011;67933;51.060;3.638;2023-03-01T08:21:33;10.90;;;7.00;;
78612;SDS011;67933;51.060;3.638;2023-03-01T08:24:02;8.98;;;6.03;;
78612;SDS011;67933;51.060;3.638;2023-03-01T08:26:32;9.05;;;6.50;;
78612;SDS011;67933;51.060;3.638;2023-03-01T08:28:57;9.45;;;6.55;;
78612;SDS011;67933;51.060;3.638;2023-03-01T08:31:28;10.15;;;6.40;;
78612;SDS011;67933;51.060;3.638;2023-03-01T08:33:57;12.05;;;6.63;;
78612;SDS011;67933;51.060;3.638;2023-03-01T08:36:25;8.35;;;6.47;;
78612;SDS011;67933;51.060;3.638;2023-03-01T08:38:52;8.95;;;6.07;;
78612;SDS011;67933;51.060;3.638;2023-03-01T08:41:17;9.15;;;6.43;;
78612;SDS011;67933;51.060;3.638;2023-03-01T08:43:44;6.50;;;4.65;;
78612;SDS011;67933;51.060;3.638;2023-03-01T08:46:10;7.43;;;4.95;;
78612;SDS011;67933;51.060;3.638;2023-03-01T08:48:36;7.20;;;5.35;;
78612;SDS011;67933;51.060;3.638;2023-03-01T08:51:12;8.07;;;4.75;;
78612;SDS011;67933;51.060;3.638;2023-03-01T08:53:40;7.50;;;5.03;;
78612;SDS011;67933;51.060;3.638;2023-03-01T08:56:06;7.93;;;4.20;;
78612;SDS011;67933;51.060;3.638;2023-03-01T08:58:33;6.70;;;4.85;;
78612;SDS011;67933;51.060;3.638;2023-03-01T09:00:58;7.30;;;4.97;;
78612;SDS011;67933;51.060;3.638;2023-03-01T09:03:24;6.47;;;5.10;;
78612;SDS011;67933;51.060;3.638;2023-03-01T09:05:50;9.50;;;5.30;;
78612;SDS011;67933;51.060;3.638;2023-03-01T09:08:16;7.72;;;5.55;;
78612;SDS011;67933;51.060;3.638;2023-03-01T09:10:42;7.63;;;5.28;;
78612;SDS011;67933;51.060;3.638;2023-03-01T09:13:08;8.18;;;5.30;;
78612;SDS011;67933;51.060;3.638;2023-03-01T09:15:39;5.97;;;4.72;;
78612;SDS011;67933;51.060;3.638;2023-03-01T09:18:04;8.02;;;5.18;;
78612;SDS011;67933;51.060;3.638;2023-03-01T09:20:31;9.38;;;5.45;;
78612;SDS011;67933;51.060;3.638;2023-03-01T09:22:56;5.75;;;5.07;;
78612;SDS011;67933;51.060;3.638;2023-03-01T09:25:22;8.57;;;4.85;;
78612;SDS011;67933;51.060;3.638;2023-03-01T09:27:50;7.50;;;5.50;;
78612;SDS011;67933;51.060;3.638;2023-03-01T09:30:16;10.13;;;5.65;;
78612;SDS011;67933;51.060;3.638;2023-03-01T09:32:42;7.05;;;4.75;;
78612;SDS011;67933;51.060;3.638;2023-03-01T09:35:09;7.18;;;5.00;;
78612;SDS011;67933;51.060;3.638;2023-03-01T09:37:35;7.35;;;5.38;;
78612;SDS011;67933;51.060;3.638;2023-03-01T09:40:03;7.68;;;5.50;;
78612;SDS011;67933;51.060;3.638;2023-03-01T09:42:45;9.82;;;6.07;;
78612;SDS011;67933;51.060;3.638;2023-03-01T09:45:28;6.75;;;4.97;;
78612;SDS011;67933;51.060;3.638;2023-03-01T09:48:00;8.38;;;5.97;;
78612;SDS011;67933;51.060;3.638;2023-03-01T09:50:28;6.15;;;4.78;;
78612;SDS011;67933;51.060;3.638;2023-03-01T09:53:07;7.60;;;5.15;;
78612;SDS011;67933;51.060;3.638;2023-03-01T09:55:50;8.25;;;5.05;;
78612;SDS011;67933;51.060;3.638;2023-03-01T09:58:41;7.32;;;4.82;;
78612;SDS011;67933;51.060;3.638;2023-03-01T10:04:00;6.63;;;4.95;;
78612;SDS011;67933;51.060;3.638;2023-03-01T10:06:31;6.47;;;4.82;;
78612;SDS011;67933;51.060;3.638;2023-03-01T10:09:00;5.93;;;4.78;;
78612;SDS011;67933;51.060;3.638;2023-03-01T10:11:38;5.95;;;4.85;;
78612;SDS011;67933;51.060;3.638;2023-03-01T10:22:18;6.82;;;4.60;;
78612;SDS011;67933;51.060;3.638;2023-03-01T10:24:49;7.43;;;5.18;;
78612;SDS011;67933;51.060;3.638;2023-03-01T10:27:27;6.10;;;5.00;;
78612;SDS011;67933;51.060;3.638;2023-03-01T10:32:41;6.85;;;5.57;;
78612;SDS011;67933;51.060;3.638;2023-03-01T10:40:34;7.25;;;4.85;;
78612;SDS011;67933;51.060;3.638;2023-03-01T10:43:02;7.25;;;4.82;;
78612;SDS011;67933;51.060;3.638;2023-03-01T10:50:44;4.97;;;4.05;;
78612;SDS011;67933;51.060;3.638;2023-03-01T10:55:56;6.80;;;4.50;;
78612;SDS011;67933;51.060;3.638;2023-03-01T10:58:26;7.15;;;4.55;;
78612;SDS011;67933;51.060;3.638;2023-03-01T11:00:57;8.18;;;5.25;;
78612;SDS011;67933;51.060;3.638;2023-03-01T11:08:34;5.80;;;4.32;;
78612;SDS011;67933;51.060;3.638;2023-03-01T11:13:37;6.07;;;4.35;;
78612;SDS011;67933;51.060;3.638;2023-03-01T11:18:57;6.07;;;4.25;;
78612;SDS011;67933;51.060;3.638;2023-03-01T11:23:52;6.85;;;3.80;;
78612;SDS011;67933;51.060;3.638;2023-03-01T11:26:18;7.63;;;4.20;;
78612;SDS011;67933;51.060;3.638;2023-03-01T11:28:48;5.53;;;4.15;;
78612;SDS011;67933;51.060;3.638;2023-03-01T11:31:16;6.63;;;4.15;;
78612;SDS011;67933;51.060;3.638;2023-03-01T11:33:53;6.40;;;4.15;;
78612;SDS011;67933;51.060;3.638;2023-03-01T11:39:39;5.32;;;3.88;;
78612;SDS011;67933;51.060;3.638;2023-03-01T11:42:19;6.60;;;4.40;;
78612;SDS011;67933;51.060;3.638;2023-03-01T11:44:50;6.65;;;5.07;;
78612;SDS011;67933;51.060;3.638;2023-03-01T11:52:16;5.90;;;4.38;;
78612;SDS011;67933;51.060;3.638;2023-03-01T11:58:10;6.60;;;4.72;;
78612;SDS011;67933;51.060;3.638;2023-03-01T12:03:42;6.40;;;4.55;;
78612;SDS011;67933;51.060;3.638;2023-03-01T12:17:54;7.63;;;5.15;;
78612;SDS011;67933;51.060;3.638;2023-03-01T12:23:36;8.02;;;5.18;;
78612;SDS011;67933;51.060;3.638;2023-03-01T12:26:28;6.18;;;4.70;;
78612;SDS011;67933;51.060;3.638;2023-03-01T12:29:15;6.97;;;4.93;;
78612;SDS011;67933;51.060;3.638;2023-03-01T12:42:14;7.10;;;5.22;;
78612;SDS011;67933;51.060;3.638;2023-03-01T12:50:31;8.18;;;4.85;;
78612;SDS011;67933;51.060;3.638;2023-03-01T12:53:04;5.85;;;4.68;;
78612;SDS011;67933;51.060;3.638;2023-03-01T12:55:33;8.43;;;4.70;;
78612;SDS011;67933;51.060;3.638;2023-03-01T13:00:58;6.68;;;4.50;;
78612;SDS011;67933;51.060;3.638;2023-03-01T13:06:12;6.22;;;4.65;;
78612;SDS011;67933;51.060;3.638;2023-03-01T13:08:54;6.57;;;4.70;;
78612;SDS011;67933;51.060;3.638;2023-03-01T13:11:28;6.35;;;4.80;;
78612;SDS011;67933;51.060;3.638;2023-03-01T13:16:53;8.00;;;4.45;;
78612;SDS011;67933;51.060;3.638;2023-03-01T13:19:23;6.88;;;5.00;;
78612;SDS011;67933;51.060;3.638;2023-03-01T13:21:51;8.25;;;5.78;;
78612;SDS011;67933;51.060;3.638;2023-03-01T13:37:44;7.60;;;4.80;;
78612;SDS011;67933;51.060;3.638;2023-03-01T13:42:49;4.50;;;3.67;;
78612;SDS011;67933;51.060;3.638;2023-03-01T13:47:44;7.15;;;4.20;;
78612;SDS011;67933;51.060;3.638;2023-03-01T13:50:21;7.65;;;4.53;;
78612;SDS011;67933;51.060;3.638;2023-03-01T13:53:03;9.38;;;4.40;;
78612;SDS011;67933;51.060;3.638;2023-03-01T13:55:38;5.45;;;4.28;;
78612;SDS011;67933;51.060;3.638;2023-03-01T14:03:27;6.40;;;4.13;;
78612;SDS011;67933;51.060;3.638;2023-03-01T14:08:28;5.75;;;3.95;;
78612;SDS011;67933;51.060;3.638;2023-03-01T14:19:22;5.70;;;4.47;;
78612;SDS011;67933;51.060;3.638;2023-03-01T14:22:02;7.18;;;4.25;;
78612;SDS011;67933;51.060;3.638;2023-03-01T14:24:40;6.28;;;4.50;;
78612;SDS011;67933;51.060;3.638;2023-03-01T14:27:14;6.53;;;4.25;;
78612;SDS011;67933;51.060;3.638;2023-03-01T14:29:40;8.73;;;4.93;;
78612;SDS011;67933;51.060;3.638;2023-03-01T14:32:18;5.25;;;4.07;;
78612;SDS011;67933;51.060;3.638;2023-03-01T14:34:46;5.55;;;3.88;;
78612;SDS011;67933;51.060;3.638;2023-03-01T14:39:57;7.57;;;4.50;;
78612;SDS011;67933;51.060;3.638;2023-03-01T14:42:24;6.63;;;4.60;;
78612;SDS011;67933;51.060;3.638;2023-03-01T14:44:53;7.18;;;5.20;;
78612;SDS011;67933;51.060;3.638;2023-03-01T14:47:32;7.20;;;4.43;;
78612;SDS011;67933;51.060;3.638;2023-03-01T14:50:14;7.15;;;4.35;;
78612;SDS011;67933;51.060;3.638;2023-03-01T14:53:05;6.97;;;3.60;;
78612;SDS011;67933;51.060;3.638;2023-03-01T14:55:38;9.02;;;4.57;;
78612;SDS011;67933;51.060;3.638;2023-03-01T14:58:11;7.00;;;4.57;;
78612;SDS011;67933;51.060;3.638;2023-03-01T15:00:38;6.88;;;4.65;;
78612;SDS011;67933;51.060;3.638;2023-03-01T15:03:11;6.03;;;4.07;;
78612;SDS011;67933;51.060;3.638;2023-03-01T15:05:40;7.20;;;4.00;;
78612;SDS011;67933;51.060;3.638;2023-03-01T15:08:08;4.85;;;3.45;;
78612;SDS011;67933;51.060;3.638;2023-03-01T15:10:55;5.72;;;4.32;;
78612;SDS011;67933;51.060;3.638;2023-03-01T15:13:41;6.95;;;4.28;;
78612;SDS011;67933;51.060;3.638;2023-03-01T15:16:13;6.57;;;4.22;;
78612;SDS011;67933;51.060;3.638;2023-03-01T15:18:45;6.25;;;4.45;;
78612;SDS011;67933;51.060;3.638;2023-03-01T15:21:20;7.28;;;4.72;;
78612;SDS011;67933;51.060;3.638;2023-03-01T15:23:53;8.52;;;4.47;;
78612;SDS011;67933;51.060;3.638;2023-03-01T15:26:29;9.60;;;4.75;;
78612;SDS011;67933;51.060;3.638;2023-03-01T15:28:58;5.85;;;4.43;;
78612;SDS011;67933;51.060;3.638;2023-03-01T15:31:28;6.68;;;4.18;;
78612;SDS011;67933;51.060;3.638;2023-03-01T15:34:19;5.53;;;3.88;;
78612;SDS011;67933;51.060;3.638;2023-03-01T15:36:48;6.85;;;4.30;;
78612;SDS011;67933;51.060;3.638;2023-03-01T15:39:30;19.38;;;4.78;;
78612;SDS011;67933;51.060;3.638;2023-03-01T15:45:06;8.05;;;4.22;;
78612;SDS011;67933;51.060;3.638;2023-03-01T15:47:33;8.27;;;4.70;;
78612;SDS011;67933;51.060;3.638;2023-03-01T15:50:00;8.77;;;4.95;;
78612;SDS011;67933;51.060;3.638;2023-03-01T15:52:28;7.65;;;4.97;;
78612;SDS011;67933;51.060;3.638;2023-03-01T15:55:02;9.30;;;4.80;;
78612;SDS011;67933;51.060;3.638;2023-03-01T15:57:40;11.68;;;5.43;;
78612;SDS011;67933;51.060;3.638;2023-03-01T16:00:08;8.25;;;5.28;;
78612;SDS011;67933;51.060;3.638;2023-03-01T16:02:38;6.93;;;4.57;;
78612;SDS011;67933;51.060;3.638;2023-03-01T16:05:05;7.55;;;5.15;;
78612;SDS011;67933;51.060;3.638;2023-03-01T16:07:39;8.52;;;5.10;;
78612;SDS011;67933;51.060;3.638;2023-03-01T16:10:04;8.65;;;5.53;;
78612;SDS011;67933;51.060;3.638;2023-03-01T16:12:30;7.15;;;4.72;;
78612;SDS011;67933;51.060;3.638;2023-03-01T16:14:55;10.48;;;5.60;;
78612;SDS011;67933;51.060;3.638;2023-03-01T16:17:22;8.10;;;4.72;;
78612;SDS011;67933;51.060;3.638;2023-03-01T16:19:48;8.60;;;4.93;;
78612;SDS011;67933;51.060;3.638;2023-03-01T16:22:13;8.90;;;5.03;;
78612;SDS011;67933;51.060;3.638;2023-03-01T16:24:39;10.82;;;5.28;;
78612;SDS011;67933;51.060;3.638;2023-03-01T16:27:05;9.20;;;5.07;;
78612;SDS011;67933;51.060;3.638;2023-03-01T16:29:31;7.00;;;4.90;;
78612;SDS011;67933;51.060;3.638;2023-03-01T16:31:56;6.70;;;5.30;;
78612;SDS011;67933;51.060;3.638;2023-03-01T16:34:25;7.97;;;5.18;;
78612;SDS011;67933;51.060;3.638;2023-03-01T16:36:50;7.85;;;4.90;;
78612;SDS011;67933;51.060;3.638;2023-03-01T16:39:16;9.95;;;5.43;;
78612;SDS011;67933;51.060;3.638;2023-03-01T16:41:41;13.25;;;5.57;;
78612;SDS011;67933;51.060;3.638;2023-03-01T16:44:07;10.32;;;5.28;;
78612;SDS011;67933;51.060;3.638;2023-03-01T16:46:32;13.55;;;5.95;;
78612;SDS011;67933;51.060;3.638;2023-03-01T16:48:57;8.57;;;4.50;;
78612;SDS011;67933;51.060;3.638;2023-03-01T16:51:23;7.72;;;5.03;;
78612;SDS011;67933;51.060;3.638;2023-03-01T16:53:49;8.05;;;5.05;;
78612;SDS011;67933;51.060;3.638;2023-03-01T16:56:16;8.20;;;4.57;;
78612;SDS011;67933;51.060;3.638;2023-03-01T16:58:42;7.65;;;4.63;;
78612;SDS011;67933;51.060;3.638;2023-03-01T17:01:09;7.28;;;5.13;;
78612;SDS011;67933;51.060;3.638;2023-03-01T17:03:40;13.82;;;4.85;;
78612;SDS011;67933;51.060;3.638;2023-03-01T17:06:08;9.05;;;5.20;;
78612;SDS011;67933;51.060;3.638;2023-03-01T17:08:38;7.18;;;4.55;;
78612;SDS011;67933;51.060;3.638;2023-03-01T17:11:11;7.50;;;4.70;;
78612;SDS011;67933;51.060;3.638;2023-03-01T17:13:41;8.70;;;5.55;;
78612;SDS011;67933;51.060;3.638;2023-03-01T17:16:08;9.68;;;5.28;;